Time;durP1;ratioP1;P1;durP2;ratioP2;P2;SDS_P1;SDS_P2;PMS_P1;PMS_P2;Temp;Humidity;BMP_temperature;BMP_pressure;BME280_temperature;BME280_humidity;BME280_pressure;Samples;Min_cycle;Max_cycle;Signal;HPM_P1;HPM_P2
2023/12/17 00:00:46;;;;;;;39.22;21.08;;;;;;;8.26;100.00;103683.66;5062667;28;20033;-58
2023/12/17 00:03:11;;;;;;;37.85;21.15;;;;;;;8.27;100.00;103688.13;5058936;28;20039;-58
2023/12/17 00:05:37;;;;;;;39.50;20.85;;;;;;;8.27;100.00;103685.34;5065001;28;20107;-55
2023/12/17 00:08:02;;;;;;;40.03;21.90;;;;;;;8.30;100.00;103681.31;5056228;28;20044;-56
2023/12/17 00:10:27;;;;;;;37.75;20.33;;;;;;;8.26;100.00;103675.38;5050931;28;20088;-56
2023/12/17 00:12:53;;;;;;;39.03;20.98;;;;;;;8.32;100.00;103681.06;5057461;28;20127;-56
2023/12/17 00:15:18;;;;;;;39.95;22.15;;;;;;;8.30;100.00;103673.03;5059034;28;20029;-58
2023/12/17 00:17:43;;;;;;;37.92;20.35;;;;;;;8.33;100.00;103682.75;5057537;28;20029;-56
2023/12/17 00:20:09;;;;;;;39.05;21.70;;;;;;;8.29;100.00;103665.81;5058332;28;20579;-56
2023/12/17 00:22:34;;;;;;;41.63;22.45;;;;;;;8.26;100.00;103667.13;5048481;28;20031;-56
2023/12/17 00:25:00;;;;;;;41.00;21.25;;;;;;;8.30;100.00;103658.41;5063443;28;20025;-56
2023/12/17 00:27:25;;;;;;;39.35;21.48;;;;;;;8.28;100.00;103659.47;5058077;28;20036;-57
2023/12/17 00:29:50;;;;;;;37.88;19.80;;;;;;;8.32;100.00;103659.88;5063656;28;20123;-59
2023/12/17 00:32:16;;;;;;;39.15;20.40;;;;;;;8.29;100.00;103654.78;5066182;28;20433;-56
2023/12/17 00:34:41;;;;;;;39.35;20.95;;;;;;;8.31;100.00;103646.31;5051636;28;20065;-56
2023/12/17 00:37:06;;;;;;;39.95;20.63;;;;;;;8.32;100.00;103656.25;5055254;28;20087;-56
2023/12/17 00:39:32;;;;;;;38.10;19.52;;;;;;;8.35;100.00;103661.34;5063354;28;20052;-56
2023/12/17 00:41:57;;;;;;;37.50;19.25;;;;;;;8.35;100.00;103653.06;5053000;28;20032;-56
2023/12/17 00:44:23;;;;;;;38.30;19.83;;;;;;;8.35;100.00;103648.41;5065295;28;20031;-56
2023/12/17 00:46:48;;;;;;;38.10;20.15;;;;;;;8.36;100.00;103650.06;5069589;28;20025;-56
2023/12/17 00:49:13;;;;;;;38.83;19.10;;;;;;;8.37;100.00;103650.94;5049679;28;20025;-56
2023/12/17 00:51:38;;;;;;;37.45;19.20;;;;;;;8.38;100.00;103652.63;5052128;28;20041;-55
2023/12/17 00:54:04;;;;;;;36.38;19.08;;;;;;;8.38;100.00;103655.38;5060053;28;20033;-56
2023/12/17 00:56:29;;;;;;;35.17;18.00;;;;;;;8.38;100.00;103653.44;5062562;28;20040;-56
2023/12/17 00:58:55;;;;;;;36.17;18.27;;;;;;;8.40;100.00;103639.47;5061414;28;20043;-56
2023/12/17 01:01:20;;;;;;;34.55;17.05;;;;;;;8.40;100.00;103639.47;5062665;28;20453;-55
2023/12/17 01:03:45;;;;;;;35.00;18.00;;;;;;;8.39;100.00;103635.84;5051237;28;20044;-58
2023/12/17 01:06:11;;;;;;;33.47;16.92;;;;;;;8.42;100.00;103626.25;5051310;28;20582;-56
2023/12/17 01:08:36;;;;;;;35.65;17.30;;;;;;;8.40;100.00;103623.75;5067931;28;20028;-58
2023/12/17 01:11:01;;;;;;;34.47;17.73;;;;;;;8.42;100.00;103627.13;5065736;28;20032;-58
2023/12/17 01:13:27;;;;;;;34.35;16.92;;;;;;;8.39;100.00;103626.72;5054388;28;20029;-58
2023/12/17 01:15:52;;;;;;;35.67;18.08;;;;;;;8.39;100.00;103629.50;5048934;28;20036;-58
2023/12/17 01:18:17;;;;;;;35.13;18.05;;;;;;;8.40;100.00;103631.19;5059328;28;20483;-58
2023/12/17 01:20:43;;;;;;;36.38;19.17;;;;;;;8.39;100.00;103638.59;5069829;28;20115;-58
2023/12/17 01:23:08;;;;;;;38.40;18.15;;;;;;;8.40;100.00;103645.81;5062902;28;20108;-58
2023/12/17 01:25:34;;;;;;;35.20;18.13;;;;;;;8.41;100.00;103653.00;5052283;28;20036;-58
2023/12/17 01:27:59;;;;;;;35.10;17.83;;;;;;;8.43;100.00;103659.16;5064260;28;20025;-58
2023/12/17 01:30:24;;;;;;;34.03;16.83;;;;;;;8.46;100.00;103651.47;5068470;28;20094;-58
2023/12/17 01:32:50;;;;;;;35.53;17.73;;;;;;;8.47;100.00;103654.06;5065505;28;20059;-56
2023/12/17 01:35:15;;;;;;;33.65;16.85;;;;;;;8.49;100.00;103660.22;5049206;28;20111;-58
2023/12/17 01:37:40;;;;;;;32.45;16.17;;;;;;;8.50;100.00;103659.13;5063553;28;20119;-59
2023/12/17 01:40:06;;;;;;;34.55;16.50;;;;;;;8.49;100.00;103651.94;5051440;28;20453;-59
2023/12/17 01:42:32;;;;;;;32.60;16.48;;;;;;;8.49;100.00;103662.13;5056322;28;20530;-59
2023/12/17 01:44:57;;;;;;;31.40;15.50;;;;;;;8.50;100.00;103663.81;5037477;28;20029;-58
2023/12/17 01:47:22;;;;;;;32.17;15.57;;;;;;;8.49;100.00;103662.13;5045010;28;20041;-58
2023/12/17 01:49:48;;;;;;;32.38;15.68;;;;;;;8.48;100.00;103655.78;5049611;28;20112;-58
2023/12/17 01:52:13;;;;;;;33.03;15.57;;;;;;;8.51;100.00;103662.75;5064816;28;20043;-58
2023/12/17 01:54:39;;;;;;;32.15;15.27;;;;;;;8.49;100.00;103662.97;5062051;28;20522;-58
2023/12/17 01:57:05;;;;;;;33.83;16.23;;;;;;;8.48;100.00;103663.19;5050129;28;20476;-58
2023/12/17 01:59:32;;;;;;;36.13;18.58;;;;;;;8.46;100.00;103666.16;5066243;28;20039;-56
2023/12/17 02:01:57;;;;;;;35.75;16.65;;;;;;;8.44;100.00;103657.25;5072264;28;20025;-59
2023/12/17 02:04:23;;;;;;;36.00;16.50;;;;;;;8.49;100.00;103659.34;5068764;28;20395;-58
2023/12/17 02:06:48;;;;;;;33.28;16.45;;;;;;;8.47;100.00;103654.06;5072007;28;20028;-58
2023/12/17 02:09:13;;;;;;;33.05;16.15;;;;;;;8.49;100.00;103659.34;5067756;28;20111;-58
2023/12/17 02:11:39;;;;;;;33.72;17.27;;;;;;;8.49;100.00;103662.97;5059934;28;20079;-58
2023/12/17 02:14:04;;;;;;;32.72;16.40;;;;;;;8.49;100.00;103667.63;5061098;28;20036;-58
2023/12/17 02:16:29;;;;;;;34.65;16.38;;;;;;;8.48;100.00;103665.94;5056677;28;20021;-59
2023/12/17 02:18:57;;;;;;;32.03;15.68;;;;;;;8.48;100.00;103663.19;5058727;28;20029;-59
2023/12/17 02:21:23;;;;;;;34.53;16.38;;;;;;;8.49;100.00;103662.13;5052803;28;20032;-59
2023/12/17 02:23:48;;;;;;;33.47;15.85;;;;;;;8.47;100.00;103648.56;5055517;28;20052;-59
2023/12/17 02:26:14;;;;;;;31.35;14.93;;;;;;;8.47;100.00;103654.06;5053001;28;20040;-59
2023/12/17 02:28:39;;;;;;;30.73;14.05;;;;;;;8.48;100.00;103649.38;5054224;28;20025;-58
2023/12/17 02:31:04;;;;;;;30.90;14.50;;;;;;;8.47;100.00;103651.31;5064166;28;20436;-58
2023/12/17 02:33:29;;;;;;;31.38;14.05;;;;;;;8.50;100.00;103656.38;5052395;28;20040;-59
2023/12/17 02:35:55;;;;;;;28.63;13.32;;;;;;;8.50;100.00;103664.66;5056742;28;20024;-59
2023/12/17 02:38:20;;;;;;;31.50;14.27;;;;;;;8.49;100.00;103653.84;5065712;28;20029;-59
2023/12/17 02:40:46;;;;;;;30.55;13.82;;;;;;;8.49;100.00;103662.97;5053782;28;20051;-59
2023/12/17 02:43:11;;;;;;;29.52;13.32;;;;;;;8.50;100.00;103656.38;5052545;28;20032;-59
2023/12/17 02:45:36;;;;;;;28.80;12.73;;;;;;;8.51;100.00;103655.31;5070021;28;20036;-58
2023/12/17 02:48:02;;;;;;;28.40;13.38;;;;;;;8.53;100.00;103653.16;5067854;28;20357;-59
2023/12/17 02:50:28;;;;;;;27.10;11.60;;;;;;;8.52;100.00;103648.72;5042824;28;20112;-58
2023/12/17 02:52:53;;;;;;;28.40;12.27;;;;;;;8.54;100.00;103654.88;5043817;28;20060;-59
2023/12/17 02:55:19;;;;;;;30.75;13.77;;;;;;;8.55;100.00;103655.69;5050296;28;20186;-58
2023/12/17 02:57:44;;;;;;;29.65;12.98;;;;;;;8.52;100.00;103647.88;5067163;28;20116;-58
2023/12/17 03:00:10;;;;;;;29.95;13.27;;;;;;;8.56;100.00;103643.59;5057822;28;20036;-56
2023/12/17 03:02:35;;;;;;;30.30;13.70;;;;;;;8.57;100.00;103640.63;5052376;28;20056;-58
2023/12/17 03:05:00;;;;;;;29.25;13.88;;;;;;;8.56;100.00;103638.94;5060156;28;20021;-58
2023/12/17 03:07:26;;;;;;;30.60;13.68;;;;;;;8.56;100.00;103638.94;5064839;28;20025;-61
2023/12/17 03:09:54;;;;;;;31.17;14.30;;;;;;;8.56;100.00;103638.06;5060796;28;20025;-58
2023/12/17 03:12:19;;;;;;;31.70;15.05;;;;;;;8.55;100.00;103631.72;5052095;28;20079;-58
2023/12/17 03:14:45;;;;;;;32.30;14.55;;;;;;;8.55;100.00;103628.97;5050981;28;20037;-57
2023/12/17 03:17:10;;;;;;;34.22;16.70;;;;;;;8.49;100.00;103634.53;5049414;28;20029;-57
2023/12/17 03:19:35;;;;;;;34.10;15.63;;;;;;;8.45;100.00;103630.50;5043424;28;20025;-56
2023/12/17 03:22:01;;;;;;;33.28;15.90;;;;;;;8.41;100.00;103636.47;5044806;28;20087;-56
2023/12/17 03:24:26;;;;;;;36.55;16.85;;;;;;;8.36;100.00;103633.50;5052522;28;20025;-58
2023/12/17 03:26:51;;;;;;;32.97;16.48;;;;;;;8.35;100.00;103630.97;5052580;28;20480;-58
2023/12/17 03:29:16;;;;;;;36.53;16.02;;;;;;;8.33;100.00;103628.47;5065651;28;20028;-57
2023/12/17 03:31:42;;;;;;;36.78;16.23;;;;;;;8.34;100.00;103626.53;5067219;28;20020;-57
2023/12/17 03:34:07;;;;;;;37.40;19.00;;;;;;;8.30;100.00;103623.38;5067830;28;20078;-56
2023/12/17 03:36:32;;;;;;;33.83;16.60;;;;;;;8.30;100.00;103628.06;5051290;28;20433;-57
2023/12/17 03:38:58;;;;;;;34.10;16.60;;;;;;;8.27;100.00;103623.81;5067631;28;20032;-57
2023/12/17 03:41:25;;;;;;;33.70;16.13;;;;;;;8.25;100.00;103628.72;5055296;28;20036;-57
2023/12/17 03:43:52;;;;;;;35.13;16.40;;;;;;;8.23;100.00;103620.66;5033213;28;20083;-57
2023/12/17 03:46:21;;;;;;;38.00;16.63;;;;;;;8.23;100.00;103617.91;5052807;28;20109;-57
2023/12/17 03:48:47;;;;;;;35.53;16.63;;;;;;;8.22;100.00;103616.22;5070464;28;20047;-57
2023/12/17 03:51:12;;;;;;;37.03;17.15;;;;;;;8.23;100.00;103609.63;5058228;28;20127;-57
2023/12/17 03:53:38;;;;;;;39.47;18.50;;;;;;;8.20;100.00;103604.56;5069609;28;20447;-57
2023/12/17 03:56:07;;;;;;;34.25;15.80;;;;;;;8.23;100.00;103606.03;5054550;28;20052;-57
2023/12/17 03:58:32;;;;;;;35.92;17.35;;;;;;;8.18;100.00;103600.31;5070010;28;20060;-57
2023/12/17 04:00:57;;;;;;;33.83;16.27;;;;;;;8.16;100.00;103599.72;5052547;28;20075;-57
2023/12/17 04:03:23;;;;;;;33.10;15.55;;;;;;;8.15;100.00;103598.88;5051458;28;20094;-57
2023/12/17 04:05:48;;;;;;;32.65;15.45;;;;;;;8.15;100.00;103595.28;5060436;28;20052;-58
2023/12/17 04:08:13;;;;;;;32.03;14.52;;;;;;;8.18;100.00;103584.66;5071320;28;20060;-60
2023/12/17 04:10:39;;;;;;;33.05;13.85;;;;;;;8.15;100.00;103593.34;5058164;28;20433;-57
2023/12/17 04:13:04;;;;;;;29.80;12.90;;;;;;;8.16;100.00;103595.03;5070971;28;20051;-58
2023/12/17 04:15:29;;;;;;;31.35;13.80;;;;;;;8.17;100.00;103593.97;5064332;28;20028;-57
2023/12/17 04:17:55;;;;;;;30.52;13.32;;;;;;;8.18;100.00;103595.69;5053802;28;20433;-57
2023/12/17 04:20:20;;;;;;;28.52;12.65;;;;;;;8.17;100.00;103584.88;5059401;28;20033;-58
2023/12/17 04:22:45;;;;;;;30.10;12.98;;;;;;;8.17;100.00;103585.72;5069885;28;20060;-58
2023/12/17 04:25:11;;;;;;;28.55;12.77;;;;;;;8.12;100.00;103593.81;5066073;28;20029;-58
2023/12/17 04:27:37;;;;;;;29.10;12.20;;;;;;;8.11;100.00;103586.59;5058938;28;20594;-57
2023/12/17 04:30:02;;;;;;;28.48;11.77;;;;;;;8.09;100.00;103586.81;5064646;28;20033;-58
2023/12/17 04:32:27;;;;;;;27.65;11.75;;;;;;;8.11;100.00;103570.91;5069849;28;20353;-56
2023/12/17 04:34:55;;;;;;;26.30;11.52;;;;;;;8.13;100.00;103576.19;5050309;28;20036;-56
2023/12/17 04:37:21;;;;;;;25.75;10.68;;;;;;;8.13;100.00;103565.16;5063294;28;20017;-57
2023/12/17 04:39:47;;;;;;;24.90;10.60;;;;;;;8.14;100.00;103571.53;5067627;28;20554;-58
2023/12/17 04:42:12;;;;;;;27.33;10.57;;;;;;;8.16;100.00;103572.16;5055820;28;20060;-58
2023/12/17 04:44:37;;;;;;;26.25;10.80;;;;;;;8.16;100.00;103572.16;5050328;28;20021;-57
2023/12/17 04:47:03;;;;;;;26.27;10.52;;;;;;;8.15;100.00;103574.06;5062551;28;20060;-57
2023/12/17 04:49:28;;;;;;;27.30;10.63;;;;;;;8.14;100.00;103575.13;5068099;28;20036;-57
2023/12/17 04:51:53;;;;;;;25.60;10.35;;;;;;;8.11;100.00;103575.56;5062417;28;20033;-59
2023/12/17 04:54:19;;;;;;;25.63;10.65;;;;;;;8.10;100.00;103580.22;5050428;28;20124;-56
2023/12/17 04:56:44;;;;;;;26.30;10.82;;;;;;;8.09;100.00;103572.19;5053038;28;20400;-58
2023/12/17 04:59:09;;;;;;;25.42;9.63;;;;;;;8.11;100.00;103575.56;5054144;28;20108;-57
2023/12/17 05:01:34;;;;;;;25.00;10.68;;;;;;;8.07;100.00;103574.31;5064908;28;20337;-57
2023/12/17 05:04:00;;;;;;;24.48;10.15;;;;;;;8.07;100.00;103568.81;5069927;28;20024;-57
2023/12/17 05:06:25;;;;;;;25.33;10.45;;;;;;;8.05;100.00;103566.28;5064276;28;20029;-57
2023/12/17 05:08:51;;;;;;;27.75;12.05;;;;;;;8.00;100.00;103573.53;5052785;28;20017;-58
2023/12/17 05:11:16;;;;;;;24.80;10.20;;;;;;;8.01;100.00;103567.78;5057774;28;20039;-57
2023/12/17 05:13:41;;;;;;;25.95;10.77;;;;;;;8.04;100.00;103560.97;5070198;28;20168;-59
2023/12/17 05:16:07;;;;;;;26.40;10.73;;;;;;;8.02;100.00;103565.88;5053799;28;20079;-59
2023/12/17 05:18:32;;;;;;;26.80;11.13;;;;;;;8.02;100.00;103563.13;5050387;28;20040;-59
2023/12/17 05:20:57;;;;;;;27.85;11.50;;;;;;;8.04;100.00;103574.75;5055326;28;20338;-59
2023/12/17 05:23:23;;;;;;;27.23;11.65;;;;;;;8.02;100.00;103576.91;5049795;28;20021;-60
2023/12/17 05:25:48;;;;;;;28.02;10.85;;;;;;;7.99;100.00;103580.94;5050565;28;20033;-60
2023/12/17 05:28:13;;;;;;;29.08;11.73;;;;;;;7.97;100.00;103574.81;5068158;28;20507;-58
2023/12/17 05:30:39;;;;;;;28.02;11.25;;;;;;;8.04;100.00;103569.25;5046383;28;20034;-58
2023/12/17 05:33:04;;;;;;;28.67;11.48;;;;;;;8.04;100.00;103577.50;5044433;28;20033;-58
2023/12/17 05:35:30;;;;;;;29.50;11.43;;;;;;;8.04;100.00;103572.00;5060087;28;20025;-59
2023/12/17 05:37:55;;;;;;;27.17;10.98;;;;;;;8.01;100.00;103573.28;5054319;28;20025;-59
2023/12/17 05:40:20;;;;;;;29.27;10.80;;;;;;;7.99;100.00;103566.31;5053600;28;20056;-58
2023/12/17 05:42:46;;;;;;;28.48;11.52;;;;;;;7.96;100.00;103571.19;5066074;28;20024;-59
2023/12/17 05:45:11;;;;;;;30.10;12.48;;;;;;;7.96;100.00;103573.13;5052164;28;20029;-59
2023/12/17 05:47:38;;;;;;;27.83;11.43;;;;;;;7.99;100.00;103563.56;5053234;28;20025;-59
2023/12/17 05:50:04;;;;;;;28.08;11.60;;;;;;;8.01;100.00;103567.78;5053789;28;20065;-58
2023/12/17 05:52:30;;;;;;;29.63;12.18;;;;;;;7.96;100.00;103557.41;5055375;28;20456;-58
2023/12/17 05:54:55;;;;;;;27.48;11.07;;;;;;;7.96;100.00;103562.09;5070180;28;20102;-59
2023/12/17 05:57:21;;;;;;;27.95;10.85;;;;;;;7.94;100.00;103569.75;5063357;28;20090;-59
2023/12/17 05:59:46;;;;;;;28.90;12.50;;;;;;;7.93;100.00;103566.16;5073488;28;20039;-59
2023/12/17 06:02:12;;;;;;;30.55;12.68;;;;;;;7.91;100.00;103559.16;5033308;28;20063;-58
2023/12/17 06:04:37;;;;;;;27.73;11.07;;;;;;;7.88;100.00;103552.16;5051136;28;20028;-58
2023/12/17 06:07:02;;;;;;;30.45;12.18;;;;;;;7.92;100.00;103560.84;5054274;28;20039;-59
2023/12/17 06:09:28;;;;;;;29.20;12.05;;;;;;;7.93;100.00;103557.88;5071970;28;20036;-60
2023/12/17 06:11:55;;;;;;;28.80;11.70;;;;;;;7.96;100.00;103562.09;5055557;28;20044;-59
2023/12/17 06:14:20;;;;;;;27.88;11.43;;;;;;;7.98;100.00;103554.47;5057671;28;20086;-59
2023/12/17 06:16:45;;;;;;;28.05;12.27;;;;;;;8.01;100.00;103555.91;5040860;28;20033;-59
2023/12/17 06:19:11;;;;;;;28.63;11.68;;;;;;;7.99;100.00;103567.16;5033133;28;20087;-58
2023/12/17 06:21:37;;;;;;;29.63;11.52;;;;;;;8.05;100.00;103563.53;5053182;28;20067;-58
2023/12/17 06:24:03;;;;;;;27.67;12.25;;;;;;;7.98;100.00;103557.22;5052748;28;20057;-58
2023/12/17 06:26:29;;;;;;;27.60;10.65;;;;;;;8.03;100.00;103556.56;5063939;28;20025;-58
2023/12/17 06:28:54;;;;;;;26.50;11.40;;;;;;;8.03;100.00;103573.09;5071022;28;20024;-58
2023/12/17 06:31:20;;;;;;;29.70;11.63;;;;;;;8.03;100.00;103554.63;5062253;28;20106;-59
2023/12/17 06:33:46;;;;;;;27.15;10.68;;;;;;;8.02;100.00;103566.72;5064230;28;20036;-58
2023/12/17 06:36:11;;;;;;;24.63;9.85;;;;;;;7.97;100.00;103570.13;5064400;28;20032;-59
2023/12/17 06:38:39;;;;;;;25.13;9.52;;;;;;;7.96;100.00;103565.69;5052434;28;20091;-59
2023/12/17 06:41:04;;;;;;;25.27;9.18;;;;;;;7.91;100.00;103572.94;5058961;28;20043;-57
2023/12/17 06:43:30;;;;;;;25.10;8.32;;;;;;;7.90;100.00;103561.06;5071474;28;20033;-58
2023/12/17 06:45:55;;;;;;;24.67;9.43;;;;;;;7.87;100.00;103567.00;5067293;28;20395;-58
2023/12/17 06:48:20;;;;;;;35.55;14.77;;;;;;;7.89;100.00;103573.16;5051028;28;20047;-59
2023/12/17 06:50:45;;;;;;;27.73;11.40;;;;;;;7.87;100.00;103563.44;5057293;28;20525;-58
2023/12/17 06:53:15;;;;;;;26.33;9.73;;;;;;;7.88;100.00;103559.59;5058709;28;20420;-58
2023/12/17 06:55:41;;;;;;;25.83;9.25;;;;;;;7.87;100.00;103560.66;5051657;28;20048;-58
2023/12/17 06:58:06;;;;;;;24.52;9.38;;;;;;;7.86;100.00;103567.25;5060520;28;20032;-58
2023/12/17 07:00:32;;;;;;;23.73;8.35;;;;;;;7.85;100.00;103563.63;5068577;28;20198;-58
2023/12/17 07:02:59;;;;;;;24.25;9.13;;;;;;;7.85;100.00;103560.03;5066621;28;20051;-57
2023/12/17 07:05:25;;;;;;;25.95;9.48;;;;;;;7.85;100.00;103569.13;5070310;28;20111;-57
2023/12/17 07:07:50;;;;;;;24.05;9.30;;;;;;;7.82;100.00;103561.34;5071040;28;20115;-58
2023/12/17 07:10:16;;;;;;;24.35;9.23;;;;;;;7.84;100.00;103563.84;5065504;28;20036;-58
2023/12/17 07:12:41;;;;;;;23.58;9.23;;;;;;;7.83;100.00;103565.78;5051749;28;20029;-58
2023/12/17 07:15:07;;;;;;;24.08;9.20;;;;;;;7.83;100.00;103567.69;5070727;28;20021;-58
2023/12/17 07:17:33;;;;;;;24.08;9.63;;;;;;;7.83;100.00;103570.44;5052084;28;20033;-57
2023/12/17 07:19:58;;;;;;;24.40;9.35;;;;;;;7.81;100.00;103582.53;5050707;28;20044;-58
2023/12/17 07:22:23;;;;;;;25.58;9.77;;;;;;;7.81;100.00;103577.00;5066807;28;20040;-58
2023/12/17 07:24:50;;;;;;;24.25;9.30;;;;;;;7.84;100.00;103583.97;5061017;28;20036;-57
2023/12/17 07:27:15;;;;;;;24.75;9.40;;;;;;;7.88;100.00;103579.72;5042886;28;20028;-58
2023/12/17 07:29:40;;;;;;;23.98;9.20;;;;;;;7.89;100.00;103584.19;5043235;28;20022;-58
2023/12/17 07:32:06;;;;;;;23.35;8.88;;;;;;;7.88;100.00;103584.41;5046603;28;20127;-58
2023/12/17 07:34:32;;;;;;;23.58;8.80;;;;;;;7.89;100.00;103586.94;5049501;28;20032;-58
2023/12/17 07:37:00;;;;;;;24.58;10.30;;;;;;;7.86;100.00;103581.03;5046231;28;20465;-58
2023/12/17 07:39:25;;;;;;;23.45;9.50;;;;;;;7.80;100.00;103575.31;5048832;28;20021;-57
2023/12/17 07:41:50;;;;;;;24.02;9.40;;;;;;;7.78;100.00;103582.13;5054184;28;20377;-57
2023/12/17 07:44:16;;;;;;;23.65;9.27;;;;;;;7.78;100.00;103593.13;5058117;28;20430;-57
2023/12/17 07:46:41;;;;;;;24.45;9.02;;;;;;;7.72;100.00;103588.53;5031477;28;20022;-58
2023/12/17 07:49:07;;;;;;;25.25;9.30;;;;;;;7.74;100.00;103594.66;5055662;28;20451;-57
2023/12/17 07:51:33;;;;;;;23.63;8.30;;;;;;;7.69;100.00;103589.81;5049125;28;20420;-57
2023/12/17 07:53:58;;;;;;;24.05;8.75;;;;;;;7.74;100.00;103600.16;5046299;28;20111;-57
2023/12/17 07:56:23;;;;;;;21.90;8.25;;;;;;;7.73;100.00;103595.72;5066964;28;20052;-57
2023/12/17 07:58:50;;;;;;;22.17;8.25;;;;;;;7.74;100.00;103595.50;5056828;28;20508;-57
2023/12/17 08:01:15;;;;;;;22.73;8.27;;;;;;;7.77;100.00;103589.56;5051441;28;20025;-57
2023/12/17 08:03:41;;;;;;;22.30;8.30;;;;;;;7.73;100.00;103590.22;5055029;28;20035;-58
2023/12/17 08:06:06;;;;;;;23.48;8.50;;;;;;;7.72;100.00;103586.59;5064916;28;20036;-58
2023/12/17 08:08:32;;;;;;;23.58;8.75;;;;;;;7.72;100.00;103597.63;5050212;28;20040;-58
2023/12/17 08:10:57;;;;;;;23.60;9.25;;;;;;;7.70;100.00;103585.97;5065479;28;20058;-58
2023/12/17 08:13:22;;;;;;;23.15;9.18;;;;;;;7.67;100.00;103594.69;5050482;28;20388;-58
2023/12/17 08:15:47;;;;;;;24.75;9.48;;;;;;;7.62;100.00;103591.72;5054909;28;20167;-57
2023/12/17 08:18:13;;;;;;;26.23;9.05;;;;;;;7.60;100.00;103591.94;5048390;28;20036;-58
2023/12/17 08:20:39;;;;;;;24.33;9.48;;;;;;;7.60;100.00;103586.44;5046742;28;20021;-58
2023/12/17 08:23:04;;;;;;;23.50;8.50;;;;;;;7.60;100.00;103588.38;5050011;28;20116;-57
2023/12/17 08:25:30;;;;;;;23.85;8.93;;;;;;;7.60;100.00;103593.88;5060130;28;20480;-58
2023/12/17 08:27:56;;;;;;;24.60;8.93;;;;;;;7.64;100.00;103595.13;5054919;28;20552;-58
2023/12/17 08:30:21;;;;;;;23.65;8.70;;;;;;;7.59;100.00;103601.28;5067418;28;20119;-58
2023/12/17 08:32:46;;;;;;;22.73;8.10;;;;;;;7.62;100.00;103603.59;5051413;28;20025;-58
2023/12/17 08:35:12;;;;;;;22.33;8.23;;;;;;;7.62;100.00;103598.09;5045456;28;20035;-57
2023/12/17 08:37:37;;;;;;;23.52;8.18;;;;;;;7.58;100.00;103601.50;5053329;28;20329;-56
2023/12/17 08:40:03;;;;;;;22.25;8.00;;;;;;;7.56;100.00;103598.13;5057752;28;20041;-57
2023/12/17 08:42:29;;;;;;;23.02;8.27;;;;;;;7.56;100.00;103598.94;5049499;28;20067;-57
2023/12/17 08:44:54;;;;;;;21.52;7.18;;;;;;;7.53;100.00;103602.16;5049217;28;20056;-57
2023/12/17 08:47:19;;;;;;;21.70;7.65;;;;;;;7.54;100.00;103605.75;5051548;28;20039;-54
2023/12/17 08:49:45;;;;;;;22.60;7.47;;;;;;;7.52;100.00;103600.47;5062973;28;20047;-56
2023/12/17 08:52:10;;;;;;;21.45;8.15;;;;;;;7.55;100.00;103601.94;5052416;28;20032;-58
2023/12/17 08:54:35;;;;;;;20.52;7.05;;;;;;;7.57;100.00;103603.41;5045753;28;20084;-58
2023/12/17 08:57:00;;;;;;;21.83;7.97;;;;;;;7.50;100.00;103602.59;5042866;28;20087;-57
2023/12/17 08:59:26;;;;;;;23.08;8.63;;;;;;;7.45;100.00;103600.47;5038481;28;20028;-57
2023/12/17 09:01:51;;;;;;;22.95;8.88;;;;;;;7.44;100.00;103604.28;5039021;28;20036;-59
2023/12/17 09:04:19;;;;;;;22.23;7.90;;;;;;;7.42;100.00;103602.84;5042359;28;20495;-57
2023/12/17 09:06:45;;;;;;;22.60;8.07;;;;;;;7.37;100.00;103599.91;5039189;28;20033;-57
2023/12/17 09:09:12;;;;;;;23.33;8.23;;;;;;;7.32;100.00;103597.78;5056272;28;20139;-57
2023/12/17 09:11:37;;;;;;;22.35;7.85;;;;;;;7.32;100.00;103593.13;5055159;28;20026;-58
2023/12/17 09:14:02;;;;;;;23.40;8.73;;;;;;;7.33;100.00;103594.81;5050925;28;20089;-56
2023/12/17 09:16:28;;;;;;;22.13;7.93;;;;;;;7.33;100.00;103591.19;5058064;28;20571;-57
2023/12/17 09:18:53;;;;;;;22.58;7.68;;;;;;;7.33;100.00;103588.44;5060417;28;20082;-57
2023/12/17 09:21:18;;;;;;;22.95;9.02;;;;;;;7.28;100.00;103585.50;5060029;28;20040;-57
2023/12/17 09:23:44;;;;;;;22.95;8.07;;;;;;;7.25;100.00;103591.44;5061312;28;20032;-59
2023/12/17 09:26:09;;;;;;;23.67;8.23;;;;;;;7.32;100.00;103603.28;5062324;28;20048;-57
2023/12/17 09:28:35;;;;;;;23.70;8.68;;;;;;;7.25;100.00;103597.81;5063553;28;20403;-57
2023/12/17 09:31:01;;;;;;;23.58;8.15;;;;;;;7.26;100.00;103594.00;5052610;28;20068;-58
2023/12/17 09:33:26;;;;;;;22.90;8.35;;;;;;;7.29;100.00;103598.22;5056472;28;20649;-57
2023/12/17 09:35:52;;;;;;;25.40;9.68;;;;;;;7.26;100.00;103598.63;5057070;28;20033;-57
2023/12/17 09:38:17;;;;;;;23.92;8.98;;;;;;;7.19;100.00;103598.66;5050474;28;20032;-57
2023/12/17 09:40:46;;;;;;;23.45;8.63;;;;;;;7.09;100.00;103601.84;5052395;28;20511;-59
2023/12/17 09:43:13;;;;;;;24.58;8.77;;;;;;;7.02;100.00;103592.78;5052544;28;20037;-57
2023/12/17 09:45:40;;;;;;;25.13;9.10;;;;;;;7.00;100.00;103606.72;5052491;28;20021;-57
2023/12/17 09:48:06;;;;;;;23.60;8.77;;;;;;;7.01;100.00;103607.59;5052161;28;20029;-56
2023/12/17 09:50:31;;;;;;;23.90;9.05;;;;;;;7.03;100.00;103616.50;5051989;28;20028;-58
2023/12/17 09:52:57;;;;;;;24.52;8.68;;;;;;;6.95;100.00;103606.53;5051871;28;20059;-55
2023/12/17 09:55:22;;;;;;;23.98;8.27;;;;;;;6.96;100.00;103615.63;5051375;28;20511;-56
2023/12/17 09:57:48;;;;;;;25.65;9.95;;;;;;;6.95;100.00;103614.78;5044702;28;20033;-56
2023/12/17 10:00:14;;;;;;;26.70;10.30;;;;;;;6.94;100.00;103612.25;5051969;28;20071;-56
2023/12/17 10:02:39;;;;;;;28.70;10.13;;;;;;;6.87;100.00;103609.50;5050551;28;20036;-57
2023/12/17 10:05:06;;;;;;;23.95;9.35;;;;;;;6.91;100.00;103610.75;5051967;28;20040;-58
2023/12/17 10:07:31;;;;;;;26.00;9.95;;;;;;;6.89;100.00;103612.91;5051738;28;20121;-56
2023/12/17 10:09:57;;;;;;;26.98;10.25;;;;;;;6.91;100.00;103609.94;5060666;28;20112;-56
2023/12/17 10:12:22;;;;;;;25.48;10.00;;;;;;;6.91;100.00;103618.19;5057392;28;20116;-57
2023/12/17 10:14:47;;;;;;;25.13;9.50;;;;;;;6.93;100.00;103605.91;5065774;28;20031;-57
2023/12/17 10:17:13;;;;;;;25.67;9.55;;;;;;;6.86;100.00;103608.66;5055260;28;20113;-57
2023/12/17 10:19:38;;;;;;;25.48;8.82;;;;;;;6.91;100.00;103615.44;5059696;28;20496;-57
2023/12/17 10:22:07;;;;;;;25.70;10.63;;;;;;;6.87;100.00;103620.53;5061097;28;20052;-57
2023/12/17 10:24:37;;;;;;;26.10;10.15;;;;;;;6.77;100.00;103620.94;5061817;28;20021;-56
2023/12/17 10:27:15;;;;;;;28.02;11.07;;;;;;;6.84;100.00;103624.56;5062280;28;20028;-57
2023/12/17 10:29:41;;;;;;;28.15;11.65;;;;;;;6.80;100.00;103619.69;5043729;28;20033;-57
2023/12/17 10:32:09;;;;;;;29.83;12.35;;;;;;;6.77;100.00;103618.19;5031556;28;20116;-57
2023/12/17 10:34:36;;;;;;;29.52;12.57;;;;;;;6.83;100.00;103614.59;5031246;28;20041;-56
2023/12/17 10:37:03;;;;;;;29.85;13.88;;;;;;;6.81;100.00;103605.69;5031404;28;20425;-57
2023/12/17 10:39:31;;;;;;;31.33;13.63;;;;;;;6.84;100.00;103610.78;5031213;28;20037;-57
2023/12/17 10:41:58;;;;;;;30.73;12.55;;;;;;;6.85;100.00;103612.47;5031342;28;20080;-57
2023/12/17 10:44:26;;;;;;;27.60;11.77;;;;;;;6.90;100.00;103602.72;5031150;28;20053;-57
2023/12/17 10:46:53;;;;;;;35.63;17.83;;;;;;;6.84;100.00;103596.16;5031271;28;20033;-56
2023/12/17 10:49:19;;;;;;;28.63;13.00;;;;;;;6.78;100.00;103594.28;5030936;28;20033;-56
2023/12/17 10:51:46;;;;;;;32.78;16.30;;;;;;;6.84;100.00;103605.28;5031090;28;20039;-57
2023/12/17 10:54:11;;;;;;;32.15;14.55;;;;;;;6.83;100.00;103594.47;5031020;28;20389;-57
2023/12/17 10:56:48;;;;;;;31.80;14.18;;;;;;;6.92;100.00;103595.94;5053425;28;20049;-56
2023/12/17 10:59:17;;;;;;;32.38;15.90;;;;;;;6.79;100.00;103583.06;5067934;28;20121;-56
2023/12/17 11:01:46;;;;;;;31.50;14.25;;;;;;;6.83;100.00;103581.59;5057466;28;20044;-57
2023/12/17 11:04:12;;;;;;;31.90;13.82;;;;;;;6.93;100.00;103583.03;5050607;28;20041;-57